createdAt,value
2022-09-20T00:01:49.267Z,2.10
2022-09-20T00:04:18.313Z,1.77
2022-09-20T00:06:47.629Z,1.90
2022-09-20T00:09:18.062Z,2.30
2022-09-20T00:11:47.288Z,2.20
2022-09-20T00:14:16.306Z,2.37
2022-09-20T00:16:45.325Z,1.70
2022-09-20T00:19:20.094Z,2.07
2022-09-20T00:21:49.608Z,1.53
2022-09-20T00:24:20.166Z,1.87
2022-09-20T00:26:49.248Z,1.83
2022-09-20T00:29:18.305Z,2.33
2022-09-20T00:31:47.449Z,1.57
2022-09-20T00:34:34.227Z,2.20
2022-09-20T00:37:03.308Z,1.83
2022-09-20T00:39:33.645Z,2.13
2022-09-20T00:42:02.615Z,1.97
2022-09-20T00:44:56.602Z,2.20
2022-09-20T00:47:32.840Z,1.70
2022-09-20T00:50:09.072Z,2.23
2022-09-20T00:52:38.791Z,2.40
2022-09-20T00:55:11.374Z,2.33
2022-09-20T00:57:40.828Z,1.97
2022-09-20T01:00:12.065Z,1.93
2022-09-20T01:02:44.642Z,1.97
2022-09-20T01:05:15.732Z,2.23
2022-09-20T01:07:47.312Z,1.60
2022-09-20T01:10:18.040Z,2.40
2022-09-20T01:12:48.676Z,2.33
2022-09-20T01:15:18.168Z,2.40
2022-09-20T01:17:52.021Z,2.20
2022-09-20T01:20:24.502Z,2.67
2022-09-20T01:23:23.666Z,2.07
2022-09-20T01:26:12.067Z,2.67
2022-09-20T01:28:45.345Z,2.13
2022-09-20T01:31:19.578Z,2.30
2022-09-20T01:33:53.083Z,2.10
2022-09-20T01:36:27.304Z,2.00
2022-09-20T01:39:06.315Z,2.43
2022-09-20T01:41:40.774Z,2.47
2022-09-20T01:44:22.235Z,2.37
2022-09-20T01:46:58.184Z,2.43
2022-09-20T01:49:36.241Z,2.40
2022-09-20T01:52:37.968Z,2.90
2022-09-20T01:55:46.883Z,2.70
2022-09-20T01:59:19.427Z,2.50
2022-09-20T02:02:31.773Z,2.33
2022-09-20T02:05:29.627Z,2.57
2022-09-20T02:08:11.967Z,2.40
2022-09-20T02:10:58.796Z,1.57
2022-09-20T02:13:33.207Z,2.57
2022-09-20T02:16:32.178Z,2.83
2022-09-20T02:19:28.615Z,2.37
2022-09-20T02:22:20.393Z,2.40
2022-09-20T02:24:59.334Z,2.07
2022-09-20T02:27:35.636Z,2.43
2022-09-20T02:30:23.994Z,2.67
2022-09-20T02:33:14.155Z,2.27
2022-09-20T02:35:57.315Z,2.40
2022-09-20T02:38:45.828Z,2.50
2022-09-20T02:41:47.272Z,2.37
2022-09-20T02:44:26.047Z,2.50
2022-09-20T02:47:03.131Z,1.87
2022-09-20T02:49:43.689Z,2.00
2022-09-20T02:52:21.885Z,1.93
2022-09-20T02:54:59.739Z,2.23
2022-09-20T02:57:39.223Z,2.40
2022-09-20T03:00:12.612Z,2.93
2022-09-20T03:02:52.024Z,2.40
2022-09-20T03:05:27.470Z,2.03
2022-09-20T03:08:12.277Z,2.13
2022-09-20T03:10:50.308Z,2.53
2022-09-20T03:13:31.642Z,2.50
2022-09-20T03:16:11.949Z,2.50
2022-09-20T03:18:52.105Z,2.23
2022-09-20T03:21:35.271Z,2.23
2022-09-20T03:24:17.351Z,2.30
2022-09-20T03:26:57.204Z,1.87
2022-09-20T03:29:39.300Z,2.33
2022-09-20T03:32:24.091Z,2.33
2022-09-20T03:35:08.252Z,1.90
2022-09-20T03:37:59.440Z,2.30
2022-09-20T03:40:58.790Z,2.17
2022-09-20T03:43:43.763Z,2.10
2022-09-20T03:46:19.749Z,2.37
2022-09-20T03:49:20.881Z,1.80
2022-09-20T03:52:03.934Z,2.43
2022-09-20T03:54:54.028Z,2.10
2022-09-20T03:57:55.883Z,2.30
2022-09-20T04:00:34.347Z,2.70
2022-09-20T04:03:30.129Z,1.83
2022-09-20T04:06:14.490Z,2.10
2022-09-20T04:09:16.354Z,2.40
2022-09-20T04:11:53.835Z,2.37
2022-09-20T04:14:34.160Z,2.60
2022-09-20T04:17:16.542Z,2.50
2022-09-20T04:19:50.923Z,2.30
2022-09-20T04:22:22.891Z,2.30
2022-09-20T04:24:57.297Z,2.13
2022-09-20T04:27:31.650Z,2.60
2022-09-20T04:30:06.294Z,2.47
2022-09-20T04:32:42.063Z,2.43
2022-09-20T04:35:42.224Z,2.73
2022-09-20T04:38:15.490Z,2.83
2022-09-20T04:41:09.125Z,2.20
2022-09-20T04:44:27.720Z,1.87
2022-09-20T04:47:39.757Z,2.00
2022-09-20T04:50:38.766Z,2.00
2022-09-20T04:53:38.618Z,2.13
2022-09-20T04:56:20.733Z,2.47
2022-09-20T04:59:04.565Z,2.23
2022-09-20T05:02:09.570Z,2.43
2022-09-20T05:05:17.236Z,2.90
2022-09-20T05:08:14.226Z,2.00
2022-09-20T05:11:11.036Z,2.63
2022-09-20T05:14:13.330Z,2.00
2022-09-20T05:17:06.547Z,2.33
2022-09-20T05:19:55.368Z,2.07
2022-09-20T05:22:55.145Z,2.03
2022-09-20T05:25:47.561Z,2.63
2022-09-20T05:28:27.820Z,2.17
2022-09-20T05:31:05.182Z,2.37
2022-09-20T05:33:40.843Z,2.30
2022-09-20T05:36:18.897Z,2.17
2022-09-20T05:38:51.795Z,2.30
2022-09-20T05:41:37.797Z,1.90
2022-09-20T05:44:21.212Z,2.03
2022-09-20T05:46:58.497Z,2.20
2022-09-20T05:49:45.064Z,2.07
2022-09-20T05:52:43.086Z,2.07
2022-09-20T05:55:38.602Z,2.53
2022-09-20T05:58:34.412Z,2.20
2022-09-20T06:01:10.940Z,2.03
2022-09-20T06:03:46.525Z,2.17
2022-09-20T06:06:23.127Z,2.43
2022-09-20T06:09:13.395Z,2.50
2022-09-20T06:12:09.833Z,2.53
2022-09-20T06:14:52.017Z,2.43
2022-09-20T06:17:28.603Z,3.00
2022-09-20T06:20:14.599Z,2.67
2022-09-20T06:22:47.296Z,2.40
2022-09-20T06:25:21.643Z,2.80
2022-09-20T06:27:55.374Z,2.60
2022-09-20T06:30:30.233Z,3.20
2022-09-20T06:33:01.143Z,2.23
2022-09-20T06:35:36.950Z,2.20
2022-09-20T06:38:42.996Z,2.13
2022-09-20T06:41:28.313Z,2.23
2022-09-20T06:43:58.591Z,2.50
2022-09-20T06:46:31.292Z,2.07
2022-09-20T06:49:00.996Z,2.33
2022-09-20T06:51:36.582Z,2.10
2022-09-20T06:54:06.748Z,2.20
2022-09-20T06:56:38.452Z,2.00
2022-09-20T06:59:10.341Z,2.27
2022-09-20T07:01:41.494Z,2.30
2022-09-20T07:04:10.657Z,2.03
2022-09-20T07:06:40.578Z,2.27
2022-09-20T07:09:11.889Z,2.00
2022-09-20T07:11:41.019Z,2.33
2022-09-20T07:14:10.688Z,2.00
2022-09-20T07:16:42.044Z,1.97
2022-09-20T07:19:11.043Z,1.47
2022-09-20T07:21:40.434Z,1.90
2022-09-20T07:24:09.498Z,1.90
2022-09-20T07:26:39.197Z,1.50
2022-09-20T07:29:08.390Z,1.70
2022-09-20T07:31:37.564Z,2.23
2022-09-20T07:34:07.901Z,1.80
2022-09-20T07:36:37.138Z,2.00
2022-09-20T07:39:06.268Z,2.47
2022-09-20T07:41:35.312Z,2.00
2022-09-20T07:44:18.257Z,1.80
2022-09-20T07:46:48.649Z,1.73
2022-09-20T07:49:19.525Z,1.43
2022-09-20T07:51:48.566Z,1.40
2022-09-20T07:54:18.309Z,2.10
2022-09-20T07:56:47.934Z,1.53
2022-09-20T07:59:17.360Z,1.97
2022-09-20T08:01:46.852Z,1.40
2022-09-20T08:04:15.978Z,1.97
2022-09-20T08:06:47.338Z,1.83
2022-09-20T08:09:16.391Z,1.97
2022-09-20T08:11:46.311Z,1.47
2022-09-20T08:14:16.662Z,1.20
2022-09-20T08:16:48.250Z,1.43
2022-09-20T08:19:20.785Z,1.40
2022-09-20T08:21:53.326Z,1.03
2022-09-20T08:24:22.912Z,0.70
2022-09-20T08:26:52.045Z,0.97
2022-09-20T08:29:21.155Z,0.70
2022-09-20T08:31:50.238Z,1.33
2022-09-20T08:34:19.729Z,1.25
2022-09-20T08:36:51.993Z,1.35
2022-09-20T08:42:19.966Z,1.30
2022-09-20T08:45:00.485Z,1.33
2022-09-20T08:47:32.615Z,0.98
2022-09-20T08:50:17.256Z,1.20
2022-09-20T08:52:50.372Z,1.00
2022-09-20T08:55:21.917Z,0.93
2022-09-20T08:57:53.404Z,0.85
2022-09-20T09:00:24.258Z,1.05
2022-09-20T09:02:57.012Z,0.70
2022-09-20T09:05:35.167Z,1.33
2022-09-20T09:08:16.062Z,1.27
2022-09-20T09:10:51.256Z,1.15
2022-09-20T09:13:38.304Z,1.27
2022-09-20T09:16:14.770Z,0.90
2022-09-20T09:18:46.056Z,1.08
2022-09-20T09:21:20.088Z,1.20
2022-09-20T09:24:01.045Z,0.90
2022-09-20T09:26:36.652Z,1.05
2022-09-20T09:29:18.541Z,1.10
2022-09-20T09:31:49.386Z,0.82
2022-09-20T09:34:26.989Z,0.63
2022-09-20T09:36:56.676Z,1.13
2022-09-20T09:39:28.585Z,1.00
2022-09-20T09:42:00.794Z,1.02
2022-09-20T09:44:32.720Z,0.93
2022-09-20T09:47:02.248Z,0.82
2022-09-20T09:49:35.862Z,0.85
2022-09-20T09:52:14.660Z,0.93
2022-09-20T09:54:49.044Z,0.70
2022-09-20T09:57:37.127Z,0.57
2022-09-20T10:00:19.264Z,0.95
2022-09-20T10:03:14.473Z,1.10
2022-09-20T10:05:56.625Z,1.35
2022-09-20T10:08:35.275Z,1.33
2022-09-20T10:11:22.878Z,0.85
2022-09-20T10:14:06.438Z,1.00
2022-09-20T10:16:53.078Z,0.70
2022-09-20T10:19:33.344Z,1.13
2022-09-20T10:22:13.302Z,0.82
2022-09-20T10:24:51.564Z,0.80
2022-09-20T10:27:37.996Z,0.90
2022-09-20T10:30:13.168Z,1.15
2022-09-20T10:33:00.411Z,1.15
2022-09-20T10:35:45.303Z,0.95
2022-09-20T10:38:19.669Z,1.08
2022-09-20T10:41:21.933Z,1.05
2022-09-20T10:44:09.609Z,0.95
2022-09-20T10:46:51.747Z,0.80
2022-09-20T10:49:36.284Z,1.10
2022-09-20T10:52:31.652Z,0.65
2022-09-20T10:55:13.983Z,0.80
2022-09-20T10:58:21.471Z,0.88
2022-09-20T11:01:01.499Z,0.90
2022-09-20T11:03:56.699Z,0.65
2022-09-20T11:06:38.507Z,0.68
2022-09-20T11:09:14.144Z,1.00
2022-09-20T11:11:47.598Z,0.70
2022-09-20T11:14:21.216Z,0.63
2022-09-20T11:16:55.273Z,0.77
2022-09-20T11:19:33.910Z,0.80
2022-09-20T11:22:10.925Z,0.75
2022-09-20T11:24:46.325Z,1.00
2022-09-20T11:27:20.094Z,0.90
2022-09-20T11:29:54.522Z,0.70
2022-09-20T11:32:32.594Z,0.80
2022-09-20T11:35:07.889Z,0.70
2022-09-20T11:37:42.681Z,0.90
2022-09-20T11:40:22.432Z,0.70
2022-09-20T11:42:53.210Z,0.68
2022-09-20T11:45:28.159Z,0.70
2022-09-20T11:48:03.445Z,0.68
2022-09-20T11:51:03.193Z,0.88
2022-09-20T11:53:48.655Z,0.73
2022-09-20T11:56:21.148Z,0.68
2022-09-20T11:58:52.556Z,0.73
2022-09-20T12:01:28.946Z,0.73
2022-09-20T12:04:31.359Z,0.70
2022-09-20T12:07:05.862Z,0.90
2022-09-20T12:09:41.625Z,0.70
2022-09-20T12:12:28.208Z,0.70
2022-09-20T12:14:59.518Z,0.70
2022-09-20T12:18:09.399Z,0.75
2022-09-20T12:21:03.036Z,1.00
2022-09-20T12:24:08.683Z,0.80
2022-09-20T12:26:57.248Z,0.90
2022-09-20T12:30:15.088Z,0.55
2022-09-20T12:33:05.056Z,0.50
2022-09-20T12:36:02.707Z,0.68
2022-09-20T12:38:37.977Z,0.60
2022-09-20T12:41:10.661Z,0.38
2022-09-20T12:43:50.985Z,0.70
2022-09-20T12:46:31.038Z,0.80
2022-09-20T12:49:35.976Z,0.50
2022-09-20T12:52:22.946Z,0.65
2022-09-20T12:55:00.957Z,0.85
2022-09-20T12:57:35.599Z,0.90
2022-09-20T13:00:09.746Z,0.70
2022-09-20T13:02:58.656Z,0.70
2022-09-20T13:05:38.130Z,0.70
2022-09-20T13:08:16.358Z,0.70
2022-09-20T13:10:51.021Z,0.80
2022-09-20T13:13:36.155Z,0.85
2022-09-20T13:16:07.532Z,0.90
2022-09-20T13:18:37.738Z,0.57
2022-09-20T13:21:09.508Z,0.60
2022-09-20T13:23:49.964Z,0.40
2022-09-20T13:26:30.394Z,0.90
2022-09-20T13:29:00.137Z,0.50
2022-09-20T13:31:33.848Z,0.50
2022-09-20T13:34:23.826Z,0.60
2022-09-20T13:36:56.604Z,0.63
2022-09-20T13:39:35.076Z,0.60
2022-09-20T13:42:11.552Z,0.68
2022-09-20T13:44:41.012Z,0.70
2022-09-20T13:47:30.409Z,0.80
2022-09-20T13:50:03.609Z,0.70
2022-09-20T13:52:33.602Z,0.73
2022-09-20T13:55:18.031Z,0.90
2022-09-20T13:57:48.582Z,0.70
2022-09-20T14:00:18.566Z,1.13
2022-09-20T14:02:50.092Z,0.70
2022-09-20T14:05:21.545Z,0.60
2022-09-20T14:07:51.262Z,0.60
2022-09-20T14:10:37.203Z,0.55
2022-09-20T14:13:12.363Z,0.40
2022-09-20T14:15:46.445Z,0.55
2022-09-20T14:18:17.967Z,0.45
2022-09-20T14:20:47.998Z,0.43
2022-09-20T14:23:27.972Z,0.60
2022-09-20T14:26:22.159Z,0.63
2022-09-20T14:28:52.544Z,0.43
2022-09-20T14:31:24.514Z,0.60
2022-09-20T14:33:56.545Z,0.60
2022-09-20T14:36:28.672Z,0.60
2022-09-20T14:39:00.240Z,0.50
2022-09-20T14:41:34.428Z,0.57
2022-09-20T14:44:07.978Z,0.50
2022-09-20T14:46:38.775Z,0.60
2022-09-20T14:49:22.050Z,0.70
2022-09-20T14:51:51.688Z,0.70
2022-09-20T14:54:28.062Z,0.90
2022-09-20T14:56:58.560Z,0.50
2022-09-20T14:59:36.397Z,0.80
2022-09-20T15:02:14.037Z,0.80
2022-09-20T15:04:54.148Z,0.50
2022-09-20T15:07:23.577Z,0.60
2022-09-20T15:09:52.612Z,0.50
2022-09-20T15:12:22.468Z,0.52
2022-09-20T15:14:52.846Z,0.60
2022-09-20T15:17:23.495Z,0.70
2022-09-20T15:19:52.465Z,0.85
2022-09-20T15:22:21.465Z,0.80
2022-09-20T15:24:50.483Z,0.60
2022-09-20T15:27:19.498Z,0.43
2022-09-20T15:29:48.440Z,0.63
2022-09-20T15:32:18.824Z,0.60
2022-09-20T15:34:47.917Z,0.65
2022-09-20T15:37:17.035Z,0.50
2022-09-20T15:39:46.029Z,0.40
2022-09-20T15:42:15.062Z,0.60
2022-09-20T15:44:44.113Z,0.40
2022-09-20T15:47:16.019Z,0.50
2022-09-20T15:49:46.681Z,0.70
2022-09-20T15:52:15.697Z,1.05
2022-09-20T15:54:44.759Z,0.90
2022-09-20T15:57:13.981Z,1.10
2022-09-20T15:59:43.018Z,0.82
2022-09-20T16:02:12.652Z,0.47
2022-09-20T16:04:41.765Z,0.68
2022-09-20T16:07:12.098Z,0.68
2022-09-20T16:09:41.370Z,1.00
2022-09-20T16:12:10.697Z,1.00
2022-09-20T16:14:39.668Z,1.10
2022-09-20T16:17:08.626Z,0.73
2022-09-20T16:19:38.338Z,0.57
2022-09-20T16:22:07.322Z,0.85
2022-09-20T16:24:38.194Z,0.88
2022-09-20T16:27:09.687Z,0.90
2022-09-20T16:29:38.865Z,1.20
2022-09-20T16:32:07.956Z,1.63
2022-09-20T16:34:38.174Z,1.30
2022-09-20T16:37:11.754Z,1.53
2022-09-20T16:39:42.446Z,5.17
2022-09-20T16:42:15.283Z,4.93
2022-09-20T16:44:50.456Z,1.67
2022-09-20T16:47:22.241Z,1.50
2022-09-20T16:49:53.294Z,1.10
2022-09-20T16:52:31.866Z,1.00
2022-09-20T16:55:11.263Z,1.43
2022-09-20T16:57:47.210Z,1.30
2022-09-20T17:00:20.804Z,1.33
2022-09-20T17:02:51.216Z,1.43
2022-09-20T17:05:20.653Z,1.37
2022-09-20T17:07:50.538Z,1.37
2022-09-20T17:10:25.056Z,1.33
2022-09-20T17:12:57.654Z,1.50
2022-09-20T17:15:26.730Z,3.07
2022-09-20T17:17:57.947Z,4.57
2022-09-20T17:20:29.128Z,2.13
2022-09-20T17:22:59.685Z,1.53
2022-09-20T17:25:30.235Z,1.90
2022-09-20T17:27:59.969Z,1.40
2022-09-20T17:30:29.135Z,1.50
2022-09-20T17:32:58.396Z,1.97
2022-09-20T17:35:29.359Z,1.00
2022-09-20T17:37:58.475Z,1.60
2022-09-20T17:40:32.164Z,0.90
2022-09-20T17:43:01.236Z,1.00
2022-09-20T17:45:30.325Z,0.87
2022-09-20T17:47:59.471Z,1.20
2022-09-20T17:50:28.634Z,1.80
2022-09-20T17:52:57.638Z,1.60
2022-09-20T17:55:28.293Z,1.87
2022-09-20T17:57:58.603Z,1.53
2022-09-20T18:00:30.674Z,1.47
2022-09-20T18:03:04.162Z,1.67
2022-09-20T18:05:34.349Z,1.20
2022-09-20T18:08:04.325Z,1.63
2022-09-20T18:10:33.548Z,1.57
2022-09-20T18:13:05.966Z,3.47
2022-09-20T18:15:35.549Z,2.20
2022-09-20T18:18:05.339Z,2.40
2022-09-20T18:20:34.755Z,2.80
2022-09-20T18:23:05.858Z,2.93
2022-09-20T18:25:59.208Z,5.10
2022-09-20T18:28:31.622Z,5.43
2022-09-20T18:31:05.351Z,3.83
2022-09-20T18:33:37.067Z,3.33
2022-09-20T18:36:08.341Z,2.83
2022-09-20T18:38:37.829Z,2.70
2022-09-20T18:41:07.272Z,2.80
2022-09-20T18:43:38.157Z,2.50
2022-09-20T18:46:09.613Z,2.67
2022-09-20T18:48:40.353Z,2.90
2022-09-20T18:51:11.335Z,2.60
2022-09-20T18:53:45.554Z,2.30
2022-09-20T18:56:25.525Z,2.80
2022-09-20T18:58:57.894Z,2.90
2022-09-20T19:01:55.853Z,3.37
2022-09-20T19:04:44.297Z,4.03
2022-09-20T19:07:22.350Z,4.33
2022-09-20T19:09:58.590Z,3.67
2022-09-20T19:12:35.079Z,4.27
2022-09-20T19:15:38.468Z,4.10
2022-09-20T19:18:26.473Z,3.77
2022-09-20T19:21:05.807Z,3.60
2022-09-20T19:23:46.290Z,4.03
2022-09-20T19:26:24.907Z,3.60
2022-09-20T19:28:57.047Z,4.03
2022-09-20T19:31:30.233Z,3.60
2022-09-20T19:34:02.331Z,3.37
2022-09-20T19:36:42.973Z,3.10
2022-09-20T19:39:17.320Z,3.03
2022-09-20T19:41:58.852Z,2.97
2022-09-20T19:44:39.480Z,3.53
2022-09-20T19:47:23.671Z,2.57
2022-09-20T19:49:56.886Z,2.80
2022-09-20T19:52:33.751Z,2.40
2022-09-20T19:55:12.448Z,2.73
2022-09-20T19:57:47.214Z,2.93
2022-09-20T20:00:19.389Z,2.23
2022-09-20T20:02:51.297Z,2.60
2022-09-20T20:05:25.539Z,2.40
2022-09-20T20:08:14.726Z,2.37
2022-09-20T20:10:55.437Z,2.17
2022-09-20T20:13:51.247Z,2.17
2022-09-20T20:16:28.137Z,2.87
2022-09-20T20:19:12.170Z,2.13
2022-09-20T20:21:53.519Z,2.77
2022-09-20T20:24:31.590Z,3.30
2022-09-20T20:27:00.548Z,3.00
2022-09-20T20:29:29.512Z,3.27
2022-09-20T20:31:58.559Z,3.07
2022-09-20T20:34:30.199Z,2.53
2022-09-20T20:37:01.471Z,2.20
2022-09-20T20:39:31.592Z,2.50
2022-09-20T20:42:02.281Z,2.67
2022-09-20T20:44:33.661Z,2.23
2022-09-20T20:47:03.993Z,2.80
2022-09-20T20:49:35.897Z,2.60
2022-09-20T20:52:05.744Z,2.20
2022-09-20T20:54:34.947Z,3.13
2022-09-20T20:57:04.315Z,2.90
2022-09-20T20:59:33.438Z,2.57
2022-09-20T21:02:07.147Z,2.33
2022-09-20T21:04:39.982Z,2.43
2022-09-20T21:07:08.948Z,2.87
2022-09-20T21:09:39.646Z,2.60
2022-09-20T21:12:09.370Z,2.47
2022-09-20T21:14:38.460Z,2.60
2022-09-20T21:17:08.375Z,2.67
2022-09-20T21:19:38.815Z,3.13
2022-09-20T21:22:07.737Z,2.97
2022-09-20T21:24:36.793Z,2.83
2022-09-20T21:27:06.047Z,2.40
2022-09-20T21:29:35.507Z,2.57
2022-09-20T21:32:04.612Z,2.57
2022-09-20T21:34:33.615Z,2.40
2022-09-20T21:37:04.309Z,2.67
2022-09-20T21:39:33.367Z,2.97
2022-09-20T21:42:03.709Z,2.57
2022-09-20T21:44:32.741Z,2.37
2022-09-20T21:47:01.659Z,2.27
2022-09-20T21:49:30.586Z,2.07
2022-09-20T21:51:59.580Z,2.13
2022-09-20T21:54:29.965Z,2.53
2022-09-20T21:56:59.389Z,2.30
2022-09-20T21:59:28.443Z,2.30
2022-09-20T22:01:58.672Z,1.83
2022-09-20T22:04:29.153Z,2.30
2022-09-20T22:06:58.386Z,2.40
2022-09-20T22:09:28.763Z,2.30
2022-09-20T22:11:57.794Z,2.07
2022-09-20T22:14:26.835Z,2.20
2022-09-20T22:16:55.988Z,2.23
2022-09-20T22:19:25.019Z,1.47
2022-09-20T22:21:54.254Z,1.90
2022-09-20T22:24:23.600Z,1.70
2022-09-20T22:26:54.082Z,1.97
2022-09-20T22:29:23.038Z,2.10
2022-09-20T22:31:52.170Z,2.00
2022-09-20T22:34:23.567Z,2.00
2022-09-20T22:36:53.800Z,2.20
2022-09-20T22:39:22.761Z,1.93
2022-09-20T22:41:54.237Z,2.73
2022-09-20T22:44:23.290Z,2.03
2022-09-20T22:46:52.344Z,2.00
2022-09-20T22:49:21.451Z,1.50
2022-09-20T22:51:50.449Z,2.03
2022-09-20T22:54:19.377Z,1.53
2022-09-20T22:56:48.455Z,1.50
2022-09-20T22:59:18.750Z,2.10
2022-09-20T23:01:48.970Z,1.80
2022-09-20T23:04:19.812Z,1.73
2022-09-20T23:06:54.457Z,1.80
2022-09-20T23:09:25.172Z,1.47
2022-09-20T23:11:54.290Z,1.57
2022-09-20T23:14:24.909Z,1.60
2022-09-20T23:16:53.982Z,1.50
2022-09-20T23:19:23.021Z,1.60
2022-09-20T23:21:52.050Z,1.60
2022-09-20T23:24:21.101Z,1.80
2022-09-20T23:26:50.071Z,1.70
2022-09-20T23:29:19.058Z,1.70
2022-09-20T23:31:49.933Z,1.40
2022-09-20T23:34:19.272Z,2.20
2022-09-20T23:36:48.579Z,1.73
2022-09-20T23:39:17.709Z,2.00
2022-09-20T23:41:50.824Z,1.97
2022-09-20T23:44:20.479Z,1.63
2022-09-20T23:46:50.829Z,2.30
2022-09-20T23:49:19.809Z,2.70
2022-09-20T23:51:48.859Z,2.40
2022-09-20T23:54:17.884Z,2.23
2022-09-20T23:56:47.545Z,2.47
2022-09-20T23:59:16.531Z,2.43
